Orion — JD3053 — position and weather

sailwx.info

Track history (hours):
 
Tides and Currents Weather Stations Pressure Air Temp Water Temp Dewpoint Dewpoint Depression Visibility Wind Speed Wind Dir Waves Ship Positions

Orion

Last reported at 2017-Dec-13 23:40 UTC. Time now 2017-Dec-16 01:19 UTC.
Position N 35°27' E 139°40'.

Length 30 m; draft 2.9 m.

Type: Pilot. MMSI: 431001618.

Date/timePositionNaut miles runAvg speedWind from/ knotsBaromVisibWave heightAir tempDewpointWater temp
2017-Dec-13 23:40N 35°27' E 139°40'210.9
2017-Dec-13 23:30N 35°28' E 139°41'3 5.9
2017-Dec-13 23:00N 35°30' E 139°44'0 1.0
2017-Dec-13 22:30N 35°30' E 139°44'5 9.4
2017-Dec-13 22:00N 35°27' E 139°40'0 0.9
2017-Dec-13 21:31N 35°27' E 139°40'0 0.0
2017-Dec-13 21:01N 35°27' E 139°40'0 0.0
2017-Dec-13 11:51N 35°27' E 139°40'2 6.0
2017-Dec-13 11:30N 35°25' E 139°42'713.7
2017-Dec-13 11:00N 35°19' E 139°43'713.5
2017-Dec-13 10:31N 35°12' E 139°46'510.2
2017-Dec-13 10:00N 35°17' E 139°45'612.2
2017-Dec-13 09:30N 35°23' E 139°41'1 2.4
2017-Dec-13 09:01N 35°23' E 139°40'1 2.2
2017-Dec-13 08:31N 35°23' E 139°41'4 7.1
2017-Dec-13 08:00N 35°27' E 139°40'0 0.0
2017-Dec-13 07:31N 35°27' E 139°40'0 0.0
2017-Dec-13 07:01N 35°27' E 139°40'0 0.0
2017-Dec-13 06:31N 35°27' E 139°40'0 0.0
2017-Dec-13 06:00N 35°27' E 139°40'0 0.0
2017-Dec-13 05:31N 35°27' E 139°40'0 0.0
2017-Dec-13 05:00N 35°27' E 139°40'0 0.0
2017-Dec-13 04:30N 35°27' E 139°40'0 0.0
2017-Dec-13 04:00N 35°27' E 139°40'0 0.0
2017-Dec-13 03:31N 35°27' E 139°40'0 0.0
2017-Dec-13 03:00N 35°27' E 139°40'0 0.0
2017-Dec-13 02:30N 35°27' E 139°40'0 0.0
2017-Dec-13 02:00N 35°27' E 139°40'0 0.0
2017-Dec-13 01:31N 35°27' E 139°40'0 0.0
2017-Dec-13 01:00N 35°27' E 139°40'0 0.0
2017-Dec-13 00:30N 35°27' E 139°40'0 0.0
2017-Dec-13 00:00N 35°27' E 139°40'0 0.0
2017-Dec-12 23:30N 35°27' E 139°40'0 0.0
2017-Dec-12 23:01N 35°27' E 139°40'2 3.4
2017-Dec-12 22:30N 35°26' E 139°42'612.8
2017-Dec-12 22:01N 35°20' E 139°43'611.9
2017-Dec-12 21:29N 35°14' E 139°47'5 9.6
2017-Dec-12 21:00N 35°10' E 139°47'5 9.6
2017-Dec-12 20:31N 35°14' E 139°46'510.7
2017-Dec-12 20:01N 35°19' E 139°42'612.1
2017-Dec-12 19:30N 35°25' E 139°42'2 4.9
2017-Dec-12 19:00N 35°27' E 139°40'0 0.0
2017-Dec-12 18:30N 35°27' E 139°40'0 0.0
2017-Dec-12 18:01N 35°27' E 139°40'0 0.0
2017-Dec-12 17:30N 35°27' E 139°40'0 0.0
2017-Dec-12 17:01N 35°27' E 139°40'0 0.0
2017-Dec-12 16:30N 35°27' E 139°40'0 0.0
2017-Dec-12 16:01N 35°27' E 139°40'0 0.0
2017-Dec-12 15:31N 35°27' E 139°40'0 0.0
2017-Dec-12 15:00N 35°27' E 139°40'0 0.0
2017-Dec-12 14:30N 35°27' E 139°40'0 0.0
2017-Dec-12 14:00N 35°27' E 139°40'0 0.0
2017-Dec-12 13:30N 35°27' E 139°40'0 0.0
2017-Dec-12 13:00N 35°27' E 139°40'0 0.0
2017-Dec-12 12:30N 35°27' E 139°40'0 0.0
2017-Dec-12 12:00N 35°27' E 139°40'0 0.0
2017-Dec-12 11:30N 35°27' E 139°40'0 0.0
2017-Dec-12 11:01N 35°27' E 139°40'0 0.0
2017-Dec-12 10:31N 35°27' E 139°40'0 0.0
2017-Dec-12 10:00N 35°27' E 139°40'0 0.0
2017-Dec-12 09:30N 35°27' E 139°40'0 0.0
2017-Dec-12 09:00N 35°27' E 139°40'0 0.0
2017-Dec-12 08:30N 35°27' E 139°40'3 5.3
2017-Dec-12 08:01N 35°25' E 139°42'714.7
2017-Dec-12 07:30N 35°17' E 139°44'4 8.4
2017-Dec-12 07:00N 35°14' E 139°46'713.4
2017-Dec-12 06:30N 35°20' E 139°43'612.9
2017-Dec-12 06:00N 35°26' E 139°45'1 2.4
2017-Dec-12 05:30N 35°25' E 139°45'3 6.2
2017-Dec-12 05:01N 35°26' E 139°42'2 4.0
2017-Dec-12 04:30N 35°27' E 139°40'0 0.0
2017-Dec-12 04:00N 35°27' E 139°40'0 0.0
2017-Dec-12 03:30N 35°27' E 139°40'0 0.0
2017-Dec-12 03:00N 35°27' E 139°40'0 0.0
2017-Dec-10 21:02N 35°27' E 139°40'010.8
2017-Dec-10 21:01N 35°27' E 139°40'612.2
2017-Dec-10 20:30N 35°25' E 139°47'611.6
2017-Dec-10 20:00N 35°20' E 139°44'610.9
2017-Dec-10 19:29N 35°15' E 139°47'5 9.4
2017-Dec-10 19:01N 35°10' E 139°46'3 6.8
2017-Dec-10 18:30N 35°14' E 139°46'713.2
2017-Dec-10 18:00N 35°20' E 139°42'714.0
2017-Dec-10 17:31N 35°26' E 139°42'2 3.2
2017-Dec-10 17:00N 35°27' E 139°40'0 0.0
2017-Dec-10 16:30N 35°27' E 139°40'0 0.0
2017-Dec-10 16:00N 35°27' E 139°40'0 0.0
2017-Dec-10 15:30N 35°27' E 139°40'0 0.0
2017-Dec-10 15:00N 35°27' E 139°40'0 0.0
2017-Dec-10 14:30N 35°27' E 139°40'0 0.0
2017-Dec-10 14:00N 35°27' E 139°40'0 0.0
2017-Dec-10 13:30N 35°27' E 139°40'0 0.0
2017-Dec-10 13:00N 35°27' E 139°40'0 0.0
2017-Dec-10 12:30N 35°27' E 139°40'0 0.0
2017-Dec-10 12:00N 35°27' E 139°40'0 0.0
2017-Dec-10 11:30N 35°27' E 139°40'0 0.0
2017-Dec-09 11:23N 35°27' E 139°40'411.6
2017-Dec-09 11:00N 35°23' E 139°42'714.1
2017-Dec-09 10:31N 35°16' E 139°45'2 4.3
2017-Dec-09 10:00N 35°15' E 139°46'612.9
2017-Dec-09 09:30N 35°20' E 139°42'611.7
2017-Dec-09 09:01N 35°26' E 139°45'612.9
2017-Dec-09 08:30N 35°29' E 139°51'711.6
2017-Dec-09 07:55N 35°33' E 139°59'4 9.5
2017-Dec-09 07:31N 35°35' E 140°03'2 3.7
2017-Dec-09 07:00N 35°35' E 140°05'1 2.7
2017-Dec-09 06:30N 35°35' E 140°06'510.2
2017-Dec-09 06:00N 35°33' E 140°00'715.0
2017-Dec-09 05:30N 35°29' E 139°53'714.5
2017-Dec-09 05:01N 35°27' E 139°44'4 7.8
2017-Dec-09 04:30N 35°27' E 139°40'0 0.0
2017-Dec-09 04:00N 35°27' E 139°40'0 0.0
2017-Dec-09 03:30N 35°27' E 139°40'0 0.0
2017-Dec-09 03:00N 35°27' E 139°40'0 0.0
2017-Dec-09 02:31N 35°27' E 139°40'0 0.0
2017-Dec-09 02:00N 35°27' E 139°40'0 0.0
2017-Dec-09 01:30N 35°27' E 139°40'0 0.0
2017-Dec-09 01:00N 35°27' E 139°40'0 0.1
2017-Dec-09 00:30N 35°27' E 139°40'510.8
2017-Dec-09 00:00N 35°31' E 139°44'2 3.4
2017-Dec-08 23:31N 35°29' E 139°43'2 4.7
2017-Dec-08 23:01N 35°27' E 139°43'3 5.0
2017-Dec-08 22:30N 35°27' E 139°40'0 0.0
2017-Dec-08 22:00N 35°27' E 139°40'0 0.0
2017-Dec-08 21:31N 35°27' E 139°40'0 0.0
2017-Dec-08 04:10N 35°27' E 139°40'1 4.2
2017-Dec-08 04:01N 35°27' E 139°40'3 5.4
2017-Dec-08 03:31N 35°25' E 139°42'0 0.4
2017-Dec-08 03:01N 35°25' E 139°42'0 0.1
2017-Dec-08 02:30N 35°25' E 139°43'0 0.3
2017-Dec-08 02:01N 35°25' E 139°42'0 0.2
2017-Dec-08 01:30N 35°25' E 139°42'0 0.4
2017-Dec-08 01:00N 35°25' E 139°42'0 0.1
2017-Dec-08 00:30N 35°25' E 139°42'0 0.3
2017-Dec-08 00:00N 35°25' E 139°42'2 3.1
2017-Dec-07 23:30N 35°26' E 139°42'2 3.4
2017-Dec-07 23:00N 35°27' E 139°40'0 0.0
2017-Dec-07 22:30N 35°27' E 139°40'0 0.0
2017-Dec-07 22:00N 35°27' E 139°40'0 0.0
2017-Dec-07 21:30N 35°27' E 139°40'  
Track history (hours):
 
Tides and Currents Weather Stations Pressure Air Temp Water Temp Dewpoint Dewpoint Depression Visibility Wind Speed Wind Dir Waves Ship Positions

Orion

Last reported at 2017-Dec-13 23:40 UTC. Time now 2017-Dec-16 01:19 UTC.
Position N 35°27' E 139°40'.

Length 30 m; draft 2.9 m.

Type: Pilot. MMSI: 431001618.

Date/timePositionNaut miles runAvg speedWind from/ knotsBaromVisibWave heightAir tempDewpointWater temp
2017-Dec-13 23:40N 35°27' E 139°40'210.9
2017-Dec-13 23:30N 35°28' E 139°41'3 5.9
2017-Dec-13 23:00N 35°30' E 139°44'0 1.0
2017-Dec-13 22:30N 35°30' E 139°44'5 9.4
2017-Dec-13 22:00N 35°27' E 139°40'0 0.9
2017-Dec-13 21:31N 35°27' E 139°40'0 0.0
2017-Dec-13 21:01N 35°27' E 139°40'0 0.0
2017-Dec-13 11:51N 35°27' E 139°40'2 6.0
2017-Dec-13 11:30N 35°25' E 139°42'713.7
2017-Dec-13 11:00N 35°19' E 139°43'713.5
2017-Dec-13 10:31N 35°12' E 139°46'510.2
2017-Dec-13 10:00N 35°17' E 139°45'612.2
2017-Dec-13 09:30N 35°23' E 139°41'1 2.4
2017-Dec-13 09:01N 35°23' E 139°40'1 2.2
2017-Dec-13 08:31N 35°23' E 139°41'4 7.1
2017-Dec-13 08:00N 35°27' E 139°40'0 0.0
2017-Dec-13 07:31N 35°27' E 139°40'0 0.0
2017-Dec-13 07:01N 35°27' E 139°40'0 0.0
2017-Dec-13 06:31N 35°27' E 139°40'0 0.0
2017-Dec-13 06:00N 35°27' E 139°40'0 0.0
2017-Dec-13 05:31N 35°27' E 139°40'0 0.0
2017-Dec-13 05:00N 35°27' E 139°40'0 0.0
2017-Dec-13 04:30N 35°27' E 139°40'0 0.0
2017-Dec-13 04:00N 35°27' E 139°40'0 0.0
2017-Dec-13 03:31N 35°27' E 139°40'0 0.0
2017-Dec-13 03:00N 35°27' E 139°40'0 0.0
2017-Dec-13 02:30N 35°27' E 139°40'0 0.0
2017-Dec-13 02:00N 35°27' E 139°40'0 0.0
2017-Dec-13 01:31N 35°27' E 139°40'0 0.0
2017-Dec-13 01:00N 35°27' E 139°40'0 0.0
2017-Dec-13 00:30N 35°27' E 139°40'0 0.0
2017-Dec-13 00:00N 35°27' E 139°40'0 0.0
2017-Dec-12 23:30N 35°27' E 139°40'0 0.0
2017-Dec-12 23:01N 35°27' E 139°40'2 3.4
2017-Dec-12 22:30N 35°26' E 139°42'612.8
2017-Dec-12 22:01N 35°20' E 139°43'611.9
2017-Dec-12 21:29N 35°14' E 139°47'5 9.6
2017-Dec-12 21:00N 35°10' E 139°47'5 9.6
2017-Dec-12 20:31N 35°14' E 139°46'510.7
2017-Dec-12 20:01N 35°19' E 139°42'612.1
2017-Dec-12 19:30N 35°25' E 139°42'2 4.9
2017-Dec-12 19:00N 35°27' E 139°40'0 0.0
2017-Dec-12 18:30N 35°27' E 139°40'0 0.0
2017-Dec-12 18:01N 35°27' E 139°40'0 0.0
2017-Dec-12 17:30N 35°27' E 139°40'0 0.0
2017-Dec-12 17:01N 35°27' E 139°40'0 0.0
2017-Dec-12 16:30N 35°27' E 139°40'0 0.0
2017-Dec-12 16:01N 35°27' E 139°40'0 0.0
2017-Dec-12 15:31N 35°27' E 139°40'0 0.0
2017-Dec-12 15:00N 35°27' E 139°40'0 0.0
2017-Dec-12 14:30N 35°27' E 139°40'0 0.0
2017-Dec-12 14:00N 35°27' E 139°40'0 0.0
2017-Dec-12 13:30N 35°27' E 139°40'0 0.0
2017-Dec-12 13:00N 35°27' E 139°40'0 0.0
2017-Dec-12 12:30N 35°27' E 139°40'0 0.0
2017-Dec-12 12:00N 35°27' E 139°40'0 0.0
2017-Dec-12 11:30N 35°27' E 139°40'0 0.0
2017-Dec-12 11:01N 35°27' E 139°40'0 0.0
2017-Dec-12 10:31N 35°27' E 139°40'0 0.0
2017-Dec-12 10:00N 35°27' E 139°40'0 0.0
2017-Dec-12 09:30N 35°27' E 139°40'0 0.0
2017-Dec-12 09:00N 35°27' E 139°40'0 0.0
2017-Dec-12 08:30N 35°27' E 139°40'3 5.3
2017-Dec-12 08:01N 35°25' E 139°42'714.7
2017-Dec-12 07:30N 35°17' E 139°44'4 8.4
2017-Dec-12 07:00N 35°14' E 139°46'713.4
2017-Dec-12 06:30N 35°20' E 139°43'612.9
2017-Dec-12 06:00N 35°26' E 139°45'1 2.4
2017-Dec-12 05:30N 35°25' E 139°45'3 6.2
2017-Dec-12 05:01N 35°26' E 139°42'2 4.0
2017-Dec-12 04:30N 35°27' E 139°40'0 0.0
2017-Dec-12 04:00N 35°27' E 139°40'0 0.0
2017-Dec-12 03:30N 35°27' E 139°40'0 0.0
2017-Dec-12 03:00N 35°27' E 139°40'0 0.0
2017-Dec-10 21:02N 35°27' E 139°40'010.8
2017-Dec-10 21:01N 35°27' E 139°40'612.2
2017-Dec-10 20:30N 35°25' E 139°47'611.6
2017-Dec-10 20:00N 35°20' E 139°44'610.9
2017-Dec-10 19:29N 35°15' E 139°47'5 9.4
2017-Dec-10 19:01N 35°10' E 139°46'3 6.8
2017-Dec-10 18:30N 35°14' E 139°46'713.2
2017-Dec-10 18:00N 35°20' E 139°42'714.0
2017-Dec-10 17:31N 35°26' E 139°42'2 3.2
2017-Dec-10 17:00N 35°27' E 139°40'0 0.0
2017-Dec-10 16:30N 35°27' E 139°40'0 0.0
2017-Dec-10 16:00N 35°27' E 139°40'0 0.0
2017-Dec-10 15:30N 35°27' E 139°40'0 0.0
2017-Dec-10 15:00N 35°27' E 139°40'0 0.0
2017-Dec-10 14:30N 35°27' E 139°40'0 0.0
2017-Dec-10 14:00N 35°27' E 139°40'0 0.0
2017-Dec-10 13:30N 35°27' E 139°40'0 0.0
2017-Dec-10 13:00N 35°27' E 139°40'0 0.0
2017-Dec-10 12:30N 35°27' E 139°40'0 0.0
2017-Dec-10 12:00N 35°27' E 139°40'0 0.0
2017-Dec-10 11:30N 35°27' E 139°40'0 0.0
2017-Dec-09 11:23N 35°27' E 139°40'411.6
2017-Dec-09 11:00N 35°23' E 139°42'714.1
2017-Dec-09 10:31N 35°16' E 139°45'2 4.3
2017-Dec-09 10:00N 35°15' E 139°46'612.9
2017-Dec-09 09:30N 35°20' E 139°42'611.7
2017-Dec-09 09:01N 35°26' E 139°45'612.9
2017-Dec-09 08:30N 35°29' E 139°51'711.6
2017-Dec-09 07:55N 35°33' E 139°59'4 9.5
2017-Dec-09 07:31N 35°35' E 140°03'2 3.7
2017-Dec-09 07:00N 35°35' E 140°05'1 2.7
2017-Dec-09 06:30N 35°35' E 140°06'510.2
2017-Dec-09 06:00N 35°33' E 140°00'715.0
2017-Dec-09 05:30N 35°29' E 139°53'714.5
2017-Dec-09 05:01N 35°27' E 139°44'4 7.8
2017-Dec-09 04:30N 35°27' E 139°40'0 0.0
2017-Dec-09 04:00N 35°27' E 139°40'0 0.0
2017-Dec-09 03:30N 35°27' E 139°40'0 0.0
2017-Dec-09 03:00N 35°27' E 139°40'0 0.0
2017-Dec-09 02:31N 35°27' E 139°40'0 0.0
2017-Dec-09 02:00N 35°27' E 139°40'0 0.0
2017-Dec-09 01:30N 35°27' E 139°40'0 0.0
2017-Dec-09 01:00N 35°27' E 139°40'0 0.1
2017-Dec-09 00:30N 35°27' E 139°40'510.8
2017-Dec-09 00:00N 35°31' E 139°44'2 3.4
2017-Dec-08 23:31N 35°29' E 139°43'2 4.7
2017-Dec-08 23:01N 35°27' E 139°43'3 5.0
2017-Dec-08 22:30N 35°27' E 139°40'0 0.0
2017-Dec-08 22:00N 35°27' E 139°40'0 0.0
2017-Dec-08 21:31N 35°27' E 139°40'0 0.0
2017-Dec-08 04:10N 35°27' E 139°40'1 4.2
2017-Dec-08 04:01N 35°27' E 139°40'3 5.4
2017-Dec-08 03:31N 35°25' E 139°42'0 0.4
2017-Dec-08 03:01N 35°25' E 139°42'0 0.1
2017-Dec-08 02:30N 35°25' E 139°43'0 0.3
2017-Dec-08 02:01N 35°25' E 139°42'0 0.2
2017-Dec-08 01:30N 35°25' E 139°42'0 0.4
2017-Dec-08 01:00N 35°25' E 139°42'0 0.1
2017-Dec-08 00:30N 35°25' E 139°42'0 0.3
2017-Dec-08 00:00N 35°25' E 139°42'2 3.1
2017-Dec-07 23:30N 35°26' E 139°42'2 3.4
2017-Dec-07 23:00N 35°27' E 139°40'0 0.0
2017-Dec-07 22:30N 35°27' E 139°40'0 0.0
2017-Dec-07 22:00N 35°27' E 139°40'0 0.0
2017-Dec-07 21:30N 35°27' E 139°40'  

Dump ship's entire track history